Time;durP1;ratioP1;P1;durP2;ratioP2;P2;SDS_P1;SDS_P2;PMS_P1;PMS_P2;Temp;Humidity;BMP_temperature;BMP_pressure;BME280_temperature;BME280_humidity;BME280_pressure;Samples;Min_cycle;Max_cycle;Signal;HPM_P1;HPM_P2
2023/11/25 00:03:40;;;;;;;1.60;1.50;;;;;;;2.77;100.00;98161.36;179549;1268;45269;-62
2023/11/25 00:07:42;;;;;;;1.60;1.10;;;;;;;2.76;100.00;98160.74;179429;1268;43934;-62
2023/11/25 00:11:44;;;;;;;2.00;1.30;;;;;;;2.64;100.00;98156.69;179166;1268;58436;-61
2023/11/25 00:16:38;;;;;;;2.20;1.90;;;;;;;2.51;100.00;98169.05;179488;1268;44974;-61
2023/11/25 00:20:40;;;;;;;1.40;1.10;;;;;;;2.33;100.00;98174.63;179537;1267;43505;-62
2023/11/25 00:24:43;;;;;;;4.30;1.60;;;;;;;2.25;100.00;98177.54;179468;1267;45038;-62
2023/11/25 00:28:45;;;;;;;1.70;1.40;;;;;;;2.07;100.00;98180.48;179277;1268;43681;-62
2023/11/25 00:32:49;;;;;;;4.20;1.80;;;;;;;2.03;100.00;98195.51;179188;1271;59187;-63
2023/11/25 00:36:52;;;;;;;1.20;1.10;;;;;;;1.94;100.00;98199.52;179187;1268;44590;-63
2023/11/25 00:40:54;;;;;;;3.60;2.80;;;;;;;1.97;100.00;98202.64;179439;1268;45201;-61
2023/11/25 00:44:56;;;;;;;2.20;1.50;;;;;;;2.01;100.00;98207.77;179131;1268;46049;-63
2023/11/25 00:48:58;;;;;;;2.50;2.30;;;;;;;2.02;100.00;98218.33;179428;1268;45931;-63
2023/11/25 00:53:07;;;;;;;2.90;2.60;;;;;;;2.00;100.00;98232.30;179459;1272;58356;-63
2023/11/25 00:57:09;;;;;;;3.40;2.60;;;;;;;1.93;100.00;98240.39;179231;1268;43888;-63
2023/11/25 01:01:11;;;;;;;1.50;1.10;;;;;;;1.98;100.00;98250.11;179362;1268;43959;-63
2023/11/25 01:06:09;;;;;;;0.80;0.50;;;;;;;2.06;100.00;98253.33;179111;1268;45921;-64
2023/11/25 01:10:12;;;;;;;2.60;0.90;;;;;;;2.04;100.00;98255.95;179378;1268;44765;-64
2023/11/25 01:14:15;;;;;;;0.60;0.60;;;;;;;2.11;100.00;98265.55;178945;1267;58568;-64
2023/11/25 01:18:18;;;;;;;1.10;0.80;;;;;;;2.18;100.00;98272.50;179325;1267;46055;-63
2023/11/25 01:22:21;;;;;;;1.90;1.10;;;;;;;2.19;100.00;98281.20;179198;1267;43640;-63
2023/11/25 01:26:23;;;;;;;0.90;0.90;;;;;;;2.25;100.00;98290.83;179153;1268;46100;-63
2023/11/25 01:30:25;;;;;;;1.20;1.10;;;;;;;2.30;100.00;98295.89;179107;1269;45939;-64
2023/11/25 01:34:27;;;;;;;1.80;1.50;;;;;;;2.30;100.00;98305.30;179320;1271;58407;-64
2023/11/25 01:38:30;;;;;;;2.80;0.90;;;;;;;2.31;100.00;98316.93;179065;1270;43870;-63
2023/11/25 01:42:32;;;;;;;1.90;1.80;;;;;;;2.27;100.00;98320.80;179011;1271;46136;-64
2023/11/25 01:46:47;;;;;;;2.10;1.90;;;;;;;2.29;100.00;98331.81;179213;1267;46035;-64
2023/11/25 01:50:50;;;;;;;2.80;1.60;;;;;;;2.25;100.00;98346.08;179318;1268;45960;-64
2023/11/25 01:55:16;;;;;;;1.30;0.90;;;;;;;2.24;100.00;98353.02;179259;1267;58143;-63
2023/11/25 01:59:20;;;;;;;1.90;1.30;;;;;;;2.19;100.00;98371.45;179372;1269;44338;-64
2023/11/25 02:03:22;;;;;;;2.40;1.90;;;;;;;2.16;100.00;98378.48;179232;1269;43856;-64
2023/11/25 02:07:25;;;;;;;5.40;1.60;;;;;;;2.24;100.00;98385.02;179415;1270;45925;-64
2023/11/25 02:12:25;;;;;;;2.30;1.40;;;;;;;2.19;100.00;98387.48;179317;1268;46097;-63
2023/11/25 02:16:26;;;;;;;3.10;2.80;;;;;;;2.10;100.00;98393.40;179385;1267;58601;-63
2023/11/25 02:20:41;;;;;;;1.90;1.50;;;;;;;2.10;100.00;98397.77;178952;1270;45983;-64
2023/11/25 02:24:43;;;;;;;4.00;1.80;;;;;;;2.13;100.00;98409.48;179124;1270;46053;-64
2023/11/25 02:28:45;;;;;;;2.80;1.40;;;;;;;2.04;100.00;98426.71;179302;1270;43732;-64
2023/11/25 02:32:47;;;;;;;5.50;1.80;;;;;;;1.96;100.00;98434.19;179527;1270;46056;-63
2023/11/25 02:36:49;;;;;;;4.10;2.20;;;;;;;1.94;100.00;98435.06;179356;1270;58616;-64
2023/11/25 02:40:51;;;;;;;2.30;1.20;;;;;;;1.97;100.00;98440.20;179137;1268;45969;-64
2023/11/25 02:44:57;;;;;;;3.80;2.90;;;;;;;1.93;100.00;98451.15;179129;1272;43627;-64
2023/11/25 02:48:59;;;;;;;8.30;2.20;;;;;;;1.96;100.00;98453.23;179208;1269;45022;-64
2023/11/25 02:53:04;;;;;;;3.40;1.80;;;;;;;2.00;100.00;98461.50;179231;1268;43900;-64
2023/11/25 02:57:07;;;;;;;1.30;1.20;;;;;;;1.96;100.00;98465.45;179008;1270;58435;-64
2023/11/25 03:01:13;;;;;;;3.60;2.00;;;;;;;1.89;100.00;98476.84;178981;1268;46146;-63
2023/11/25 03:05:16;;;;;;;;;;;;;;;1.84;100.00;98488.77;179445;1269;45221;-64
2023/11/25 03:09:18;;;;;;;3.20;0.90;;;;;;;1.79;100.00;98501.48;179206;1270;44966;-64
2023/11/25 03:13:20;;;;;;;1.80;1.10;;;;;;;1.76;100.00;98501.41;179133;1268;45866;-64
2023/11/25 03:17:34;;;;;;;5.90;2.70;;;;;;;1.75;100.00;98512.42;179391;1270;58703;-64
2023/11/25 03:21:36;;;;;;;8.60;1.10;;;;;;;1.84;100.00;98514.04;178984;1267;45142;-64
2023/11/25 03:25:38;;;;;;;2.10;1.60;;;;;;;1.83;100.00;98521.64;179038;1273;45251;-63
2023/11/25 03:29:40;;;;;;;1.50;1.40;;;;;;;1.88;100.00;98529.21;178964;1272;46068;-64
2023/11/25 03:33:43;;;;;;;1.40;1.00;;;;;;;1.85;100.00;98528.00;179096;1272;46043;-63
2023/11/25 03:37:45;;;;;;;1.90;1.40;;;;;;;1.87;100.00;98532.06;178994;1270;58487;-64
2023/11/25 03:41:47;;;;;;;12.20;2.50;;;;;;;1.83;100.00;98529.54;179105;1270;44908;-64
2023/11/25 03:45:50;;;;;;;1.20;1.10;;;;;;;1.77;100.00;98533.33;179076;1268;46026;-64
2023/11/25 03:49:52;;;;;;;1.60;1.40;;;;;;;1.74;100.00;98539.09;178663;1270;44067;-64
2023/11/25 03:53:54;;;;;;;1.00;0.90;;;;;;;1.69;100.00;98545.73;179331;1268;44288;-64
2023/11/25 03:58:18;;;;;;;1.40;0.80;;;;;;;1.68;100.00;98548.30;179326;1268;59357;-64
2023/11/25 04:02:20;;;;;;;3.60;1.30;;;;;;;1.73;100.00;98554.39;179296;1268;44165;-63
2023/11/25 04:06:22;;;;;;;2.70;1.20;;;;;;;1.78;100.00;98552.84;179148;1270;43547;-63
2023/11/25 04:10:26;;;;;;;3.90;1.90;;;;;;;1.77;100.00;98551.11;179110;1268;45976;-63
2023/11/25 04:14:31;;;;;;;1.00;0.90;;;;;;;1.74;100.00;98546.45;178819;1269;46235;-62
2023/11/25 04:18:59;;;;;;;2.30;1.20;;;;;;;1.73;100.00;98553.17;179174;1267;59937;-62
2023/11/25 04:23:06;;;;;;;7.70;1.50;;;;;;;1.72;100.00;98557.77;179310;1270;43690;-63
2023/11/25 04:27:11;;;;;;;1.60;1.40;;;;;;;1.67;100.00;98556.56;179362;1268;43610;-62
2023/11/25 04:31:16;;;;;;;2.60;1.10;;;;;;;1.56;100.00;98565.55;179236;1267;46695;-63
2023/11/25 04:35:20;;;;;;;1.90;1.30;;;;;;;1.57;100.00;98573.90;179441;1268;44634;-63
2023/11/25 04:39:23;;;;;;;1.60;1.10;;;;;;;1.56;100.00;98580.04;179395;1269;58960;-63
2023/11/25 04:43:26;;;;;;;2.70;1.50;;;;;;;1.63;100.00;98586.55;179448;1268;43876;-63
2023/11/25 04:47:33;;;;;;;8.90;2.40;;;;;;;1.64;100.00;98594.02;179582;1270;43651;-62
2023/11/25 04:51:34;;;;;;;2.10;1.50;;;;;;;1.69;100.00;98604.17;179513;1268;43536;-62
2023/11/25 04:55:37;;;;;;;2.80;2.10;;;;;;;1.71;100.00;98606.41;179486;1268;43614;-63
2023/11/25 04:59:39;;;;;;;2.90;1.90;;;;;;;1.73;100.00;98611.73;179398;1270;57937;-62
2023/11/25 05:03:41;;;;;;;3.10;2.00;;;;;;;1.79;100.00;98622.50;179258;1269;46024;-63
2023/11/25 05:07:44;;;;;;;8.70;2.80;;;;;;;1.80;100.00;98624.69;179141;1268;45628;-62
2023/11/25 05:11:54;;;;;;;2.70;2.50;;;;;;;1.83;100.00;98621.48;179050;1268;44797;-63
2023/11/25 05:15:58;;;;;;;2.60;1.30;;;;;;;1.81;100.00;98626.33;179054;1270;43876;-62
2023/11/25 05:20:00;;;;;;;2.30;2.10;;;;;;;1.79;100.00;98636.08;179355;1268;57141;-62
2023/11/25 05:24:04;;;;;;;5.00;2.30;;;;;;;1.79;100.00;98633.29;179462;1268;46024;-62
2023/11/25 05:28:08;;;;;;;1.70;1.40;;;;;;;1.83;100.00;98641.74;179424;1268;43911;-63
2023/11/25 05:32:12;;;;;;;2.40;1.40;;;;;;;1.80;100.00;98649.67;179529;1267;43718;-62
2023/11/25 05:36:15;;;;;;;8.30;1.70;;;;;;;1.75;100.00;98651.96;179210;1269;173426;-62
2023/11/25 05:40:17;;;;;;;1.50;0.80;;;;;;;1.73;100.00;98662.42;179475;1267;57887;-62
2023/11/25 05:44:20;;;;;;;2.30;1.60;;;;;;;1.73;100.00;98660.65;179487;1267;43819;-62
2023/11/25 05:48:26;;;;;;;3.10;1.40;;;;;;;1.69;100.00;98667.59;179149;1269;43561;-62
2023/11/25 05:52:32;;;;;;;5.00;1.20;;;;;;;1.65;100.00;98680.38;179420;1268;44856;-62
2023/11/25 05:56:34;;;;;;;3.90;1.10;;;;;;;1.70;100.00;98686.76;179287;1268;43571;-62
2023/11/25 06:00:36;;;;;;;2.40;1.20;;;;;;;1.70;100.00;98684.77;179483;1268;59075;-62
2023/11/25 06:04:38;;;;;;;2.00;1.30;;;;;;;1.65;100.00;98695.61;179279;1268;45966;-62
2023/11/25 06:09:45;;;;;;;2.60;0.90;;;;;;;1.65;100.00;98700.73;179399;1267;45904;-62
2023/11/25 06:13:47;;;;;;;1.80;1.70;;;;;;;1.71;100.00;98708.50;179500;1267;43923;-62
2023/11/25 06:18:02;;;;;;;1.40;0.70;;;;;;;1.64;100.00;98711.45;179237;1268;46129;-62
2023/11/25 06:22:07;;;;;;;4.60;1.00;;;;;;;1.58;100.00;98718.52;179438;1267;58524;-62
2023/11/25 06:26:12;;;;;;;3.20;1.70;;;;;;;1.52;100.00;98725.55;179438;1267;43706;-62
2023/11/25 06:30:18;;;;;;;3.60;1.10;;;;;;;1.52;100.00;98732.40;179395;1268;45921;-62
2023/11/25 06:34:20;;;;;;;1.60;1.40;;;;;;;1.64;100.00;98741.13;179494;1269;43574;-62
2023/11/25 06:38:39;;;;;;;1.30;1.00;;;;;;;1.68;100.00;98747.19;179496;1267;46049;-62
2023/11/25 06:42:43;;;;;;;3.20;1.80;;;;;;;1.67;100.00;98754.54;178818;1267;58809;-62
2023/11/25 06:47:40;;;;;;;2.00;0.90;;;;;;;1.72;100.00;98760.52;179195;1269;45374;-62
2023/11/25 06:51:42;;;;;;;1.60;1.40;;;;;;;1.71;100.00;98764.42;179563;1267;44857;-62
2023/11/25 06:55:46;;;;;;;3.60;2.10;;;;;;;1.73;100.00;98764.99;179296;1268;43657;-62
2023/11/25 06:59:48;;;;;;;1.70;1.60;;;;;;;1.71;100.00;98779.60;179527;1268;43579;-62
2023/11/25 07:03:50;;;;;;;4.90;2.50;;;;;;;1.73;100.00;98779.84;179274;1268;58733;-62
2023/11/25 07:07:52;;;;;;;1.70;1.60;;;;;;;1.77;100.00;98778.88;179049;1268;43614;-62
2023/11/25 07:11:56;;;;;;;4.70;1.50;;;;;;;1.79;100.00;98788.66;179224;1268;46116;-62
2023/11/25 07:15:58;;;;;;;3.60;1.60;;;;;;;1.77;100.00;98796.71;179265;1270;44635;-62
2023/11/25 07:20:00;;;;;;;0.90;0.60;;;;;;;1.76;100.00;98807.73;179260;1269;43730;-62
2023/11/25 07:24:03;;;;;;;2.00;0.60;;;;;;;1.76;100.00;98812.67;179149;1268;58089;-62
2023/11/25 07:28:10;;;;;;;1.70;1.10;;;;;;;1.70;100.00;98817.31;179357;1268;43792;-62
2023/11/25 07:32:14;;;;;;;4.50;2.30;;;;;;;1.75;100.00;98821.64;179462;1268;46615;-62
2023/11/25 07:37:17;;;;;;;2.00;0.90;;;;;;;1.85;100.00;98821.69;179281;1268;46044;-62
2023/11/25 07:41:19;;;;;;;1.00;0.90;;;;;;;1.89;100.00;98826.64;179550;1267;44717;-62
2023/11/25 07:45:21;;;;;;;2.20;1.20;;;;;;;1.98;100.00;98832.00;179565;1267;58608;-62
2023/11/25 07:49:25;;;;;;;4.40;2.20;;;;;;;1.98;100.00;98842.12;179272;1267;46092;-61
2023/11/25 07:53:29;;;;;;;3.00;1.50;;;;;;;2.01;100.00;98848.88;179103;1269;43523;-62
2023/11/25 08:18:49;;;;;;;1.60;0.90;;;;;;;2.27;100.00;98888.60;176373;1270;46059;-88
2023/11/25 08:22:51;;;;;;;1.60;1.00;;;;;;;2.23;100.00;98887.06;176459;1266;46090;-87
2023/11/25 08:28:04;;;;;;;1.60;0.90;;;;;;;2.32;100.00;98892.06;176242;1267;45906;-88
2023/11/25 08:32:07;;;;;;;5.00;2.40;;;;;;;2.37;100.00;98895.23;175911;1266;59653;-88
2023/11/25 08:41:43;;;;;;;1.90;1.80;;;;;;;2.44;100.00;98896.30;175873;1267;46005;-87
2023/11/25 08:45:53;;;;;;;2.30;1.80;;;;;;;2.41;100.00;98903.19;176006;1268;47550;-88
2023/11/25 08:49:56;;;;;;;3.20;2.80;;;;;;;2.39;100.00;98909.96;176265;1267;46008;-88
2023/11/25 08:53:59;;;;;;;1.40;1.30;;;;;;;2.32;100.00;98913.06;176991;1267;58227;-88
2023/11/25 08:58:02;;;;;;;2.90;2.20;;;;;;;2.33;100.00;98921.05;176102;1266;46105;-87
2023/11/25 09:02:04;;;;;;;7.70;2.60;;;;;;;2.25;100.00;98923.33;176064;1267;46552;-88
2023/11/25 09:06:08;;;;;;;3.70;2.00;;;;;;;2.34;100.00;98918.71;176222;1267;46109;-87
2023/11/25 09:10:11;;;;;;;4.90;2.40;;;;;;;2.26;100.00;98937.09;176242;1267;46117;-88
2023/11/25 09:14:18;;;;;;;4.80;2.70;;;;;;;2.29;100.00;98943.03;176323;1270;60574;-87
2023/11/25 09:18:21;;;;;;;24.90;8.90;;;;;;;2.28;100.00;98937.80;175961;1267;46183;-87
2023/11/25 09:22:31;;;;;;;10.60;6.30;;;;;;;2.32;100.00;98940.52;176051;1267;46034;-88
2023/11/25 09:26:33;;;;;;;3.50;2.80;;;;;;;2.40;100.00;98945.62;176231;1270;46133;-87
2023/11/25 09:30:37;;;;;;;8.00;2.70;;;;;;;2.39;100.00;98945.96;176098;1267;46097;-88
2023/11/25 09:34:40;;;;;;;6.60;3.00;;;;;;;2.31;100.00;98954.27;176122;1266;58026;-88
2023/11/25 09:38:42;;;;;;;3.40;2.50;;;;;;;2.22;100.00;98956.43;176020;1267;46147;-87
2023/11/25 09:48:24;;;;;;;3.30;2.00;;;;;;;2.46;100.00;98952.84;176517;1267;46226;-87
2023/11/25 09:52:30;;;;;;;4.30;3.00;;;;;;;2.46;100.00;98938.90;176151;1270;46087;-88
2023/11/25 09:56:36;;;;;;;4.90;2.60;;;;;;;2.43;100.00;98938.91;176023;1270;58226;-86
2023/11/25 10:00:38;;;;;;;4.60;2.50;;;;;;;2.45;100.00;98945.98;175797;1267;46553;-88
2023/11/25 10:04:42;;;;;;;5.10;1.80;;;;;;;2.52;100.00;98944.75;176025;1267;46050;-87
2023/11/25 10:08:44;;;;;;;2.80;2.20;;;;;;;2.54;100.00;98941.11;176097;1265;46007;-87
2023/11/25 10:12:50;;;;;;;3.90;3.00;;;;;;;2.57;100.00;98941.25;175832;1267;46129;-87
2023/11/25 10:16:52;;;;;;;4.40;2.20;;;;;;;2.62;100.00;98926.02;175950;1267;59544;-88
2023/11/25 10:20:59;;;;;;;7.50;3.50;;;;;;;2.61;100.00;98925.44;176096;1267;46257;-88
2023/11/25 10:25:34;;;;;;;7.50;3.00;;;;;;;2.76;100.00;98925.06;176281;1267;46076;-88
2023/11/25 10:29:39;;;;;;;4.00;3.60;;;;;;;2.95;100.00;98926.87;176443;1268;46181;-88
2023/11/25 10:33:42;;;;;;;6.10;3.10;;;;;;;2.97;100.00;98927.91;176186;1267;46128;-87
2023/11/25 10:37:45;;;;;;;14.60;6.20;;;;;;;2.99;100.00;98930.95;176182;1267;59450;-88
2023/11/25 10:41:51;;;;;;;27.80;10.50;;;;;;;3.01;100.00;98933.81;176514;1267;46021;-88
2023/11/25 10:46:11;;;;;;;7.30;3.80;;;;;;;3.06;100.00;98929.91;176167;1270;46034;-88
2023/11/25 10:51:04;;;;;;;5.20;3.20;;;;;;;3.03;100.00;98929.65;176077;1267;46455;-87
2023/11/25 10:55:09;;;;;;;10.70;3.90;;;;;;;2.96;100.00;98924.18;176832;1267;46111;-84
2023/11/25 10:59:15;;;;;;;4.90;2.40;;;;;;;2.97;100.00;98935.32;175865;1267;58116;-87
2023/11/25 11:08:41;;;;;;;4.30;3.00;;;;;;;3.04;100.00;98925.16;176000;1267;46377;-87
2023/11/25 11:13:00;;;;;;;3.70;3.00;;;;;;;2.98;100.00;98916.48;176194;1266;46001;-84
2023/11/25 11:17:21;;;;;;;7.50;3.60;;;;;;;2.87;100.00;98919.27;176029;1270;46120;-88
2023/11/25 11:21:32;;;;;;;2.50;1.80;;;;;;;2.68;100.00;98910.20;176078;1267;59487;-88
2023/11/25 11:31:08;;;;;;;2.90;2.50;;;;;;;2.50;100.00;98905.52;175981;1267;46474;-88
2023/11/25 11:35:12;;;;;;;3.90;1.50;;;;;;;2.46;100.00;98894.61;175971;1266;46008;-87
2023/11/25 11:44:18;;;;;;;10.10;4.90;;;;;;;2.60;100.00;98887.16;176176;1268;59404;-87
2023/11/25 11:48:24;;;;;;;4.50;3.80;;;;;;;2.70;100.00;98883.08;176304;1267;46224;-87
2023/11/25 11:58:18;;;;;;;12.30;4.80;;;;;;;2.92;100.00;98865.44;176179;1270;46112;-87
2023/11/25 12:02:28;;;;;;;9.20;4.60;;;;;;;3.04;100.00;98866.13;175847;1268;46105;-87
2023/11/25 12:06:31;;;;;;;8.20;4.90;;;;;;;3.20;100.00;98863.38;176624;1267;58937;-83
2023/11/25 12:10:36;;;;;;;4.20;3.60;;;;;;;3.23;100.00;98861.77;176299;1268;46193;-88
2023/11/25 12:15:17;;;;;;;8.00;4.30;;;;;;;3.26;100.00;98868.05;176125;1270;46259;-88
2023/11/25 12:19:20;;;;;;;6.40;3.40;;;;;;;3.32;100.00;98868.52;176087;1267;46035;-87
2023/11/25 12:23:36;;;;;;;3.10;2.70;;;;;;;3.44;100.00;98857.41;176027;1270;46018;-87
2023/11/25 12:32:49;;;;;;;12.70;5.30;;;;;;;3.58;100.00;98858.33;179310;1267;46129;-87
2023/11/25 12:37:16;;;;;;;4.10;2.40;;;;;;;3.61;100.00;98863.33;177384;1268;46101;-88
2023/11/25 12:41:21;;;;;;;9.20;4.20;;;;;;;3.55;100.00;98857.88;176780;1267;46021;-87
2023/11/25 12:45:29;;;;;;;5.90;3.50;;;;;;;3.46;100.00;98853.02;176616;1267;46135;-87
2023/11/25 12:49:31;;;;;;;4.80;3.90;;;;;;;3.46;100.00;98851.88;176193;1267;58485;-87
2023/11/25 12:54:03;;;;;;;11.40;7.50;;;;;;;3.37;100.00;98855.33;175915;1272;45996;-87
2023/11/25 12:58:08;;;;;;;37.70;23.80;;;;;;;3.27;100.00;98861.98;176297;1266;46301;-88
2023/11/25 13:07:57;;;;;;;18.80;6.50;;;;;;;3.22;100.00;98868.17;176157;1267;45998;-88
2023/11/25 13:12:03;;;;;;;8.20;5.90;;;;;;;3.26;100.00;98871.89;175979;1267;60779;-86
2023/11/25 13:22:03;;;;;;;12.40;5.30;;;;;;;3.30;100.00;98870.54;176006;1268;46095;-87
2023/11/25 13:26:05;;;;;;;9.70;4.50;;;;;;;3.34;100.00;98871.34;176136;1267;46101;-88
2023/11/25 13:30:08;;;;;;;8.60;3.90;;;;;;;3.33;100.00;98867.69;176062;1267;45968;-87
2023/11/25 13:34:11;;;;;;;9.30;4.30;;;;;;;3.36;100.00;98869.80;176230;1266;58471;-88
2023/11/25 13:38:15;;;;;;;16.00;8.90;;;;;;;3.35;100.00;98861.11;175939;1267;46021;-88
2023/11/25 13:42:18;;;;;;;7.40;4.70;;;;;;;3.39;100.00;98860.10;175858;1268;46123;-88
2023/11/25 13:46:20;;;;;;;8.10;5.50;;;;;;;3.32;100.00;98859.52;176030;1270;46135;-88
2023/11/25 13:50:26;;;;;;;10.80;4.80;;;;;;;3.30;100.00;98860.43;176036;1268;46045;-88
2023/11/25 13:54:29;;;;;;;7.60;3.60;;;;;;;3.27;100.00;98868.33;176246;1266;58690;-86
2023/11/25 13:58:31;;;;;;;10.40;3.40;;;;;;;3.30;100.00;98872.12;176290;1270;46526;-87
2023/11/25 14:03:00;;;;;;;9.50;3.70;;;;;;;3.33;100.00;98874.04;176055;1271;46126;-88
2023/11/25 14:07:03;;;;;;;7.60;4.80;;;;;;;3.16;100.00;98871.95;176033;1268;45950;-87
2023/11/25 14:11:33;;;;;;;14.20;5.00;;;;;;;3.07;100.00;98879.95;176113;1271;46040;-87
2023/11/25 14:15:35;;;;;;;6.30;3.30;;;;;;;3.09;100.00;98875.95;176106;1267;58353;-87
2023/11/25 14:20:40;;;;;;;7.00;4.20;;;;;;;3.14;100.00;98870.86;176024;1268;46129;-87
2023/11/25 14:24:43;;;;;;;7.90;3.50;;;;;;;3.17;100.00;98876.59;176130;1267;46196;-87
2023/11/25 14:28:45;;;;;;;9.70;3.80;;;;;;;3.14;100.00;98871.91;176674;1268;46114;-88
2023/11/25 14:32:48;;;;;;;7.30;4.00;;;;;;;3.10;100.00;98870.58;176261;1267;46122;-88
2023/11/25 14:36:51;;;;;;;9.20;4.20;;;;;;;3.12;100.00;98878.52;176234;1267;58351;-88
2023/11/25 14:40:54;;;;;;;8.10;5.70;;;;;;;3.16;100.00;98877.16;176004;1268;46142;-88
2023/11/25 14:50:41;;;;;;;9.50;4.70;;;;;;;3.12;100.00;98886.23;175898;1268;46069;-88
2023/11/25 14:55:22;;;;;;;20.80;6.10;;;;;;;3.04;100.00;98886.50;176068;1267;46206;-88
2023/11/25 14:59:25;;;;;;;8.20;5.10;;;;;;;3.10;100.00;98888.12;176479;1267;58539;-88
2023/11/25 15:03:27;;;;;;;10.20;4.60;;;;;;;3.20;100.00;98890.02;176691;1266;46158;-89
2023/11/25 15:13:25;;;;;;;6.90;5.10;;;;;;;3.42;100.00;98897.15;176228;1268;45997;-88
2023/11/25 15:17:30;;;;;;;11.80;7.00;;;;;;;3.44;100.00;98893.86;176066;1269;46127;-89
2023/11/25 15:22:23;;;;;;;11.10;4.90;;;;;;;3.43;100.00;98898.30;176199;1268;59506;-88
2023/11/25 15:26:26;;;;;;;12.00;4.80;;;;;;;3.45;100.00;98898.38;176378;1267;46043;-88
2023/11/25 15:30:28;;;;;;;6.30;3.50;;;;;;;3.42;100.00;98901.08;176073;1270;46138;-87
2023/11/25 15:34:30;;;;;;;9.40;5.20;;;;;;;3.36;100.00;98899.90;176184;1266;46135;-88
2023/11/25 15:38:55;;;;;;;10.10;4.60;;;;;;;3.27;100.00;98900.05;176103;1269;46026;-88
2023/11/25 15:42:57;;;;;;;12.00;5.90;;;;;;;3.33;100.00;98903.25;176069;1270;58253;-88
2023/11/25 15:47:02;;;;;;;17.70;7.10;;;;;;;3.38;100.00;98904.36;176149;1269;46129;-88
2023/11/25 15:56:55;;;;;;;9.90;5.10;;;;;;;3.36;100.00;98904.77;176036;1269;46029;-89
2023/11/25 16:01:13;;;;;;;10.00;4.50;;;;;;;3.31;100.00;98903.96;176086;1267;46309;-87
2023/11/25 16:05:15;;;;;;;7.50;4.60;;;;;;;3.20;100.00;98900.04;176084;1267;58381;-87
2023/11/25 16:09:38;;;;;;;14.30;6.90;;;;;;;3.16;100.00;98899.94;176102;1267;46155;-86
2023/11/25 16:13:41;;;;;;;12.50;6.10;;;;;;;3.12;100.00;98900.42;176173;1268;46065;-88
2023/11/25 16:17:44;;;;;;;7.50;5.60;;;;;;;3.09;100.00;98901.91;175906;1266;50421;-88
2023/11/25 16:28:08;;;;;;;16.40;7.40;;;;;;;2.91;100.00;98905.08;175935;1267;59277;-87
2023/11/25 16:32:18;;;;;;;17.00;6.50;;;;;;;2.85;100.00;98904.15;175941;1267;46130;-88
2023/11/25 16:36:34;;;;;;;9.60;5.80;;;;;;;2.80;100.00;98901.71;177110;1267;44233;-88
2023/11/25 16:40:37;;;;;;;10.60;5.20;;;;;;;2.72;100.00;98901.23;177327;1269;44834;-88
2023/11/25 16:45:46;;;;;;;17.70;7.40;;;;;;;2.66;100.00;98902.16;176838;1270;46123;-88
2023/11/25 16:49:48;;;;;;;16.70;8.10;;;;;;;2.52;100.00;98905.23;176190;1267;59188;-88
2023/11/25 16:53:59;;;;;;;20.20;9.30;;;;;;;2.49;100.00;98908.75;176008;1268;46110;-88
2023/11/25 16:58:02;;;;;;;15.30;8.30;;;;;;;2.45;100.00;98910.90;176089;1267;46085;-87
2023/11/25 17:02:06;;;;;;;13.70;7.80;;;;;;;2.48;100.00;98913.17;175905;1271;46005;-88
2023/11/25 17:06:09;;;;;;;13.70;7.10;;;;;;;2.54;100.00;98914.14;176258;1268;46091;-88
2023/11/25 17:10:11;;;;;;;13.80;9.00;;;;;;;2.62;100.00;98916.10;176263;1267;59405;-88
2023/11/25 17:14:27;;;;;;;18.50;9.30;;;;;;;2.64;100.00;98916.98;176292;1268;46104;-87
2023/11/25 17:18:29;;;;;;;12.50;8.00;;;;;;;2.67;100.00;98917.48;176168;1271;46510;-87
2023/11/25 17:22:41;;;;;;;12.90;8.30;;;;;;;2.69;100.00;98919.10;176084;1268;46119;-86
2023/11/25 17:26:43;;;;;;;14.10;8.40;;;;;;;2.70;100.00;98917.95;176183;1268;46119;-87
2023/11/25 17:30:46;;;;;;;15.60;7.20;;;;;;;2.71;100.00;98915.23;176067;1271;59591;-87
2023/11/25 17:40:36;;;;;;;16.30;7.70;;;;;;;2.57;100.00;98925.88;175691;1267;45880;-87
2023/11/25 17:44:56;;;;;;;13.50;8.50;;;;;;;2.42;100.00;98932.12;176028;1268;46014;-87
2023/11/25 17:48:58;;;;;;;11.60;7.50;;;;;;;2.35;100.00;98933.66;175840;1271;46138;-87
2023/11/25 17:53:00;;;;;;;19.90;10.10;;;;;;;2.33;100.00;98940.09;176150;1268;60532;-87
2023/11/25 17:57:19;;;;;;;22.30;11.30;;;;;;;2.36;100.00;98938.53;175925;1267;46114;-87
2023/11/25 18:01:21;;;;;;;18.10;8.50;;;;;;;2.40;100.00;98941.73;175871;1270;45995;-87
2023/11/25 18:06:19;;;;;;;21.90;11.50;;;;;;;2.40;100.00;98945.72;176068;1267;45978;-87
2023/11/25 18:10:21;;;;;;;19.70;11.20;;;;;;;2.35;100.00;98951.88;176184;1268;45982;-87
2023/11/25 18:14:30;;;;;;;28.20;12.20;;;;;;;2.29;100.00;98954.74;176014;1271;58304;-87
2023/11/25 18:18:32;;;;;;;12.90;9.30;;;;;;;2.32;100.00;98958.23;176021;1267;46020;-86
2023/11/25 18:22:34;;;;;;;17.50;9.20;;;;;;;2.33;100.00;98962.85;176102;1268;46065;-87
2023/11/25 18:27:02;;;;;;;14.30;8.50;;;;;;;2.27;100.00;98961.70;176199;1269;45968;-87
2023/11/25 18:31:05;;;;;;;18.40;10.80;;;;;;;2.18;100.00;98963.70;176170;1268;46134;-87
2023/11/25 18:35:08;;;;;;;16.30;10.80;;;;;;;2.04;100.00;98963.60;176192;1267;59794;-87
2023/11/25 18:39:11;;;;;;;16.30;9.80;;;;;;;1.99;100.00;98963.93;175724;1267;46117;-87
2023/11/25 18:43:13;;;;;;;20.00;11.50;;;;;;;1.95;100.00;98969.44;175943;1268;46218;-87
2023/11/25 18:47:16;;;;;;;13.90;12.20;;;;;;;1.90;100.00;98967.47;176181;1271;46128;-87
2023/11/25 18:51:18;;;;;;;15.70;10.00;;;;;;;1.86;100.00;98967.60;176553;1268;46111;-87
2023/11/25 18:55:25;;;;;;;19.10;11.90;;;;;;;1.72;100.00;98973.96;176058;1269;59602;-87
2023/11/25 18:59:27;;;;;;;26.10;12.70;;;;;;;1.59;100.00;98972.34;175907;1271;46090;-87
2023/11/25 19:03:42;;;;;;;22.60;13.50;;;;;;;1.55;100.00;98977.41;175930;1267;46138;-88
2023/11/25 19:08:14;;;;;;;17.30;11.60;;;;;;;1.50;100.00;98982.86;175814;1271;46030;-87
2023/11/25 19:12:16;;;;;;;23.70;10.50;;;;;;;1.47;100.00;98991.27;176193;1270;46172;-87
2023/11/25 19:16:19;;;;;;;12.60;9.20;;;;;;;1.49;100.00;98998.98;175929;1267;58677;-87
2023/11/25 19:20:22;;;;;;;16.10;10.10;;;;;;;1.48;100.00;99005.20;176082;1268;46260;-87
2023/11/25 19:24:25;;;;;;;15.40;9.50;;;;;;;1.50;100.00;99008.35;175699;1267;46056;-88
2023/11/25 19:33:44;;;;;;;26.90;10.50;;;;;;;1.78;100.00;99007.45;176016;1271;46425;-87
2023/11/25 19:38:26;;;;;;;14.60;8.70;;;;;;;1.91;100.00;99015.17;175896;1267;60786;-87
2023/11/25 19:42:28;;;;;;;14.00;7.90;;;;;;;1.77;100.00;99025.14;175983;1271;46115;-87
2023/11/25 19:46:30;;;;;;;15.80;8.40;;;;;;;1.66;100.00;99031.50;175899;1267;45876;-88
2023/11/25 19:50:36;;;;;;;9.40;7.10;;;;;;;1.57;100.00;99031.71;175848;1267;46134;-88
2023/11/25 19:54:38;;;;;;;12.50;9.10;;;;;;;1.72;100.00;99029.52;175866;1270;46148;-87
2023/11/25 19:58:40;;;;;;;13.60;7.70;;;;;;;1.85;100.00;99028.15;175882;1268;57118;-87
2023/11/25 20:03:34;;;;;;;17.40;10.60;;;;;;;1.91;100.00;99036.17;176083;1271;46079;-87
2023/11/25 20:07:37;;;;;;;17.00;11.00;;;;;;;1.92;100.00;99053.39;175970;1268;46056;-85
2023/11/25 20:12:13;;;;;;;34.30;17.80;;;;;;;1.96;100.00;99054.17;175903;1269;46041;-86
2023/11/25 20:16:16;;;;;;;32.30;16.20;;;;;;;1.98;100.00;99052.84;175899;1270;46136;-87
2023/11/25 20:20:20;;;;;;;26.20;13.60;;;;;;;2.02;100.00;99054.13;175896;1273;59184;-88
2023/11/25 20:24:23;;;;;;;12.90;7.20;;;;;;;2.11;100.00;99059.84;176157;1271;46011;-87
2023/11/25 20:28:25;;;;;;;13.90;6.30;;;;;;;2.14;100.00;99064.48;176476;1271;46012;-88
2023/11/25 20:32:28;;;;;;;8.80;6.60;;;;;;;2.10;100.00;99064.60;176767;1268;44856;-87
2023/11/25 20:42:08;;;;;;;14.50;7.00;;;;;;;2.09;100.00;99068.02;176536;1267;58366;-88
2023/11/25 20:46:18;;;;;;;20.60;8.20;;;;;;;2.17;100.00;99068.17;176136;1267;46233;-87
2023/11/25 20:50:24;;;;;;;17.70;9.00;;;;;;;2.19;100.00;99071.42;175963;1266;46130;-88
2023/11/25 20:55:02;;;;;;;15.60;8.30;;;;;;;2.29;100.00;99071.21;175992;1267;46255;-87
2023/11/25 20:59:05;;;;;;;11.80;7.00;;;;;;;2.30;100.00;99079.77;176011;1267;46209;-88
2023/11/25 21:03:08;;;;;;;16.00;9.10;;;;;;;2.20;100.00;99081.98;175942;1267;58139;-87